sensor_id;sensor_type;location;lat;lon;timestamp;pressure;altitude;pressure_sealevel;temperature;humidity
58223;BME280;44020;50.890;15.796;2023-07-24T00:01:32;97020.39;;;17.41;67.05
58223;BME280;44020;50.890;15.796;2023-07-24T00:03:59;97012.20;;;17.36;67.29
58223;BME280;44020;50.890;15.796;2023-07-24T00:06:26;97007.46;;;17.35;67.48
58223;BME280;44020;50.890;15.796;2023-07-24T00:08:53;97006.48;;;17.32;67.62
58223;BME280;44020;50.890;15.796;2023-07-24T00:11:20;97005.64;;;17.32;67.60
58223;BME280;44020;50.890;15.796;2023-07-24T00:13:47;97006.47;;;17.31;67.67
58223;BME280;44020;50.890;15.796;2023-07-24T00:16:14;97004.02;;;17.30;67.55
58223;BME280;44020;50.890;15.796;2023-07-24T00:18:41;97003.67;;;17.32;67.64
58223;BME280;44020;50.890;15.796;2023-07-24T00:21:08;96997.35;;;17.29;67.64
58223;BME280;44020;50.890;15.796;2023-07-24T00:23:37;96996.54;;;17.23;67.63
58223;BME280;44020;50.890;15.796;2023-07-24T00:26:04;96995.91;;;17.14;68.02
58223;BME280;44020;50.890;15.796;2023-07-24T00:28:32;96994.41;;;17.09;68.31
58223;BME280;44020;50.890;15.796;2023-07-24T00:31:00;96994.80;;;17.05;68.45
58223;BME280;44020;50.890;15.796;2023-07-24T00:33:27;96996.65;;;17.02;68.80
58223;BME280;44020;50.890;15.796;2023-07-24T00:35:56;96997.48;;;17.01;69.10
58223;BME280;44020;50.890;15.796;2023-07-24T00:38:24;96993.58;;;17.00;69.09
58223;BME280;44020;50.890;15.796;2023-07-24T00:40:51;96986.52;;;16.98;69.02
58223;BME280;44020;50.890;15.796;2023-07-24T00:43:18;96993.34;;;16.93;69.15
58223;BME280;44020;50.890;15.796;2023-07-24T00:45:46;96993.83;;;16.90;69.62
58223;BME280;44020;50.890;15.796;2023-07-24T00:48:14;96993.93;;;16.87;69.86
58223;BME280;44020;50.890;15.796;2023-07-24T00:50:42;96991.54;;;16.88;70.12
58223;BME280;44020;50.890;15.796;2023-07-24T00:53:11;96991.34;;;16.86;70.34
58223;BME280;44020;50.890;15.796;2023-07-24T00:55:40;96991.54;;;16.82;70.54
58223;BME280;44020;50.890;15.796;2023-07-24T00:58:10;96995.86;;;16.81;70.81
58223;BME280;44020;50.890;15.796;2023-07-24T01:00:40;96997.81;;;16.81;71.05
58223;BME280;44020;50.890;15.796;2023-07-24T01:03:08;96992.64;;;16.81;71.03
58223;BME280;44020;50.890;15.796;2023-07-24T01:05:36;96993.13;;;16.79;71.15
58223;BME280;44020;50.890;15.796;2023-07-24T01:08:04;96988.23;;;16.78;71.43
58223;BME280;44020;50.890;15.796;2023-07-24T01:10:31;96984.83;;;16.78;71.51
58223;BME280;44020;50.890;15.796;2023-07-24T01:12:59;96984.60;;;16.79;71.45
58223;BME280;44020;50.890;15.796;2023-07-24T01:15:36;96988.15;;;16.75;71.66
58223;BME280;44020;50.890;15.796;2023-07-24T01:18:09;96990.33;;;16.72;71.81
58223;BME280;44020;50.890;15.796;2023-07-24T01:20:39;96989.07;;;16.68;72.06
58223;BME280;44020;50.890;15.796;2023-07-24T01:23:13;96988.85;;;16.69;72.25
58223;BME280;44020;50.890;15.796;2023-07-24T01:26:11;96987.48;;;16.67;72.14
58223;BME280;44020;50.890;15.796;2023-07-24T01:28:38;96980.80;;;16.64;72.40
58223;BME280;44020;50.890;15.796;2023-07-24T01:31:06;96975.45;;;16.63;72.36
58223;BME280;44020;50.890;15.796;2023-07-24T01:33:34;96964.04;;;16.61;72.31
58223;BME280;44020;50.890;15.796;2023-07-24T01:36:04;96952.52;;;16.60;72.55
58223;BME280;44020;50.890;15.796;2023-07-24T01:38:34;96952.39;;;16.59;72.56
58223;BME280;44020;50.890;15.796;2023-07-24T01:41:02;96957.27;;;16.57;72.68
58223;BME280;44020;50.890;15.796;2023-07-24T01:43:30;96966.58;;;16.56;72.74
58223;BME280;44020;50.890;15.796;2023-07-24T01:45:59;96959.52;;;16.53;72.80
58223;BME280;44020;50.890;15.796;2023-07-24T01:48:26;96962.19;;;16.52;73.00
58223;BME280;44020;50.890;15.796;2023-07-24T01:50:53;96961.48;;;16.48;73.06
58223;BME280;44020;50.890;15.796;2023-07-24T01:53:20;96963.12;;;16.46;73.18
58223;BME280;44020;50.890;15.796;2023-07-24T01:55:47;96957.29;;;16.42;73.24
58223;BME280;44020;50.890;15.796;2023-07-24T01:58:14;96963.36;;;16.39;73.45
58223;BME280;44020;50.890;15.796;2023-07-24T02:00:43;96961.31;;;16.38;73.64
58223;BME280;44020;50.890;15.796;2023-07-24T02:03:10;96960.40;;;16.38;73.63
58223;BME280;44020;50.890;15.796;2023-07-24T02:05:37;96952.80;;;16.38;73.59
58223;BME280;44020;50.890;15.796;2023-07-24T02:08:05;96951.41;;;16.36;73.83
58223;BME280;44020;50.890;15.796;2023-07-24T02:10:32;96949.60;;;16.35;74.07
58223;BME280;44020;50.890;15.796;2023-07-24T02:12:59;96950.86;;;16.33;74.18
58223;BME280;44020;50.890;15.796;2023-07-24T02:15:26;96949.42;;;16.33;74.29
58223;BME280;44020;50.890;15.796;2023-07-24T02:17:53;96942.20;;;16.34;74.28
58223;BME280;44020;50.890;15.796;2023-07-24T02:20:20;96939.17;;;16.35;74.50
58223;BME280;44020;50.890;15.796;2023-07-24T02:22:48;96940.98;;;16.37;74.58
58223;BME280;44020;50.890;15.796;2023-07-24T02:25:15;96941.36;;;16.38;74.65
58223;BME280;44020;50.890;15.796;2023-07-24T02:27:42;96939.92;;;16.38;74.54
58223;BME280;44020;50.890;15.796;2023-07-24T02:30:09;96939.52;;;16.37;74.67
58223;BME280;44020;50.890;15.796;2023-07-24T02:32:37;96942.44;;;16.36;74.68
58223;BME280;44020;50.890;15.796;2023-07-24T02:35:04;96947.64;;;16.38;74.67
58223;BME280;44020;50.890;15.796;2023-07-24T02:37:32;96948.34;;;16.40;74.39
58223;BME280;44020;50.890;15.796;2023-07-24T02:39:59;96953.17;;;16.40;74.34
58223;BME280;44020;50.890;15.796;2023-07-24T02:42:26;96946.73;;;16.38;74.48
58223;BME280;44020;50.890;15.796;2023-07-24T02:44:53;96949.05;;;16.40;74.64
58223;BME280;44020;50.890;15.796;2023-07-24T02:47:21;96953.73;;;16.41;74.47
58223;BME280;44020;50.890;15.796;2023-07-24T02:49:51;96949.05;;;16.42;74.54
58223;BME280;44020;50.890;15.796;2023-07-24T02:52:18;96951.43;;;16.43;74.55
58223;BME280;44020;50.890;15.796;2023-07-24T02:54:45;96951.20;;;16.43;74.65
58223;BME280;44020;50.890;15.796;2023-07-24T02:57:12;96949.05;;;16.42;74.82
58223;BME280;44020;50.890;15.796;2023-07-24T02:59:39;96954.83;;;16.40;75.02
58223;BME280;44020;50.890;15.796;2023-07-24T03:02:06;96951.56;;;16.40;75.12
58223;BME280;44020;50.890;15.796;2023-07-24T03:04:33;96940.30;;;16.40;75.25
58223;BME280;44020;50.890;15.796;2023-07-24T03:07:00;96940.64;;;16.38;75.43
58223;BME280;44020;50.890;15.796;2023-07-24T03:09:27;96938.77;;;16.39;75.64
58223;BME280;44020;50.890;15.796;2023-07-24T03:11:54;96938.96;;;16.40;75.61
58223;BME280;44020;50.890;15.796;2023-07-24T03:14:21;96936.11;;;16.42;75.89
58223;BME280;44020;50.890;15.796;2023-07-24T03:16:48;96938.15;;;16.43;75.96
58223;BME280;44020;50.890;15.796;2023-07-24T03:19:15;96937.65;;;16.44;76.02
58223;BME280;44020;50.890;15.796;2023-07-24T03:21:44;96934.50;;;16.45;76.14
58223;BME280;44020;50.890;15.796;2023-07-24T03:24:11;96928.41;;;16.45;76.04
58223;BME280;44020;50.890;15.796;2023-07-24T03:26:38;96924.14;;;16.45;76.23
58223;BME280;44020;50.890;15.796;2023-07-24T03:29:06;96928.55;;;16.45;76.21
58223;BME280;44020;50.890;15.796;2023-07-24T03:31:33;96925.55;;;16.47;76.26
58223;BME280;44020;50.890;15.796;2023-07-24T03:34:00;96929.39;;;16.48;76.16
58223;BME280;44020;50.890;15.796;2023-07-24T03:36:27;96935.25;;;16.49;76.06
58223;BME280;44020;50.890;15.796;2023-07-24T03:38:54;96937.77;;;16.50;76.12
58223;BME280;44020;50.890;15.796;2023-07-24T03:41:21;96938.77;;;16.53;76.04
58223;BME280;44020;50.890;15.796;2023-07-24T03:43:52;96945.55;;;16.56;76.10
58223;BME280;44020;50.890;15.796;2023-07-24T03:46:19;96944.70;;;16.61;75.97
58223;BME280;44020;50.890;15.796;2023-07-24T03:48:46;96939.53;;;16.65;75.98
58223;BME280;44020;50.890;15.796;2023-07-24T03:51:13;96940.35;;;16.68;75.80
58223;BME280;44020;50.890;15.796;2023-07-24T03:53:40;96943.35;;;16.72;75.78
58223;BME280;44020;50.890;15.796;2023-07-24T03:56:08;96948.70;;;16.75;76.06
58223;BME280;44020;50.890;15.796;2023-07-24T03:58:35;96948.38;;;16.78;76.02
58223;BME280;44020;50.890;15.796;2023-07-24T04:01:02;96951.70;;;16.81;76.09
58223;BME280;44020;50.890;15.796;2023-07-24T04:03:29;96951.67;;;16.83;75.89
58223;BME280;44020;50.890;15.796;2023-07-24T04:05:56;96948.24;;;16.85;75.95
58223;BME280;44020;50.890;15.796;2023-07-24T04:08:23;96943.27;;;16.88;75.91
58223;BME280;44020;50.890;15.796;2023-07-24T04:10:50;96942.23;;;16.89;75.87
58223;BME280;44020;50.890;15.796;2023-07-24T04:13:17;96942.52;;;16.90;75.82
58223;BME280;44020;50.890;15.796;2023-07-24T04:15:45;96936.03;;;16.90;75.83
58223;BME280;44020;50.890;15.796;2023-07-24T04:18:12;96934.55;;;16.92;76.07
58223;BME280;44020;50.890;15.796;2023-07-24T04:20:39;96934.79;;;16.93;76.11
58223;BME280;44020;50.890;15.796;2023-07-24T04:23:06;96936.41;;;16.95;76.26
58223;BME280;44020;50.890;15.796;2023-07-24T04:25:33;96929.55;;;16.97;76.32
58223;BME280;44020;50.890;15.796;2023-07-24T04:28:01;96928.68;;;16.98;76.23
58223;BME280;44020;50.890;15.796;2023-07-24T04:30:28;96923.55;;;17.01;76.26
58223;BME280;44020;50.890;15.796;2023-07-24T04:32:55;96926.36;;;17.03;76.22
58223;BME280;44020;50.890;15.796;2023-07-24T04:35:22;96919.36;;;17.05;76.16
58223;BME280;44020;50.890;15.796;2023-07-24T04:37:49;96908.80;;;17.08;76.30
58223;BME280;44020;50.890;15.796;2023-07-24T04:40:18;96910.14;;;17.10;76.56
58223;BME280;44020;50.890;15.796;2023-07-24T04:42:45;96903.71;;;17.12;76.58
58223;BME280;44020;50.890;15.796;2023-07-24T04:45:12;96905.92;;;17.14;76.80
58223;BME280;44020;50.890;15.796;2023-07-24T04:47:39;96907.48;;;17.18;76.78
58223;BME280;44020;50.890;15.796;2023-07-24T04:50:06;96909.96;;;17.21;76.78
58223;BME280;44020;50.890;15.796;2023-07-24T04:52:33;96896.88;;;17.25;76.86
58223;BME280;44020;50.890;15.796;2023-07-24T04:55:00;96893.91;;;17.29;77.17
58223;BME280;44020;50.890;15.796;2023-07-24T04:57:27;96890.50;;;17.34;77.51
58223;BME280;44020;50.890;15.796;2023-07-24T04:59:54;96887.73;;;17.38;77.57
58223;BME280;44020;50.890;15.796;2023-07-24T05:02:21;96880.49;;;17.41;77.52
58223;BME280;44020;50.890;15.796;2023-07-24T05:04:49;96875.52;;;17.45;77.44
58223;BME280;44020;50.890;15.796;2023-07-24T05:07:17;96869.53;;;17.49;77.65
58223;BME280;44020;50.890;15.796;2023-07-24T05:09:43;96863.05;;;17.53;77.81
58223;BME280;44020;50.890;15.796;2023-07-24T05:12:10;96858.70;;;17.56;77.85
58223;BME280;44020;50.890;15.796;2023-07-24T05:14:37;96858.61;;;17.60;77.99
58223;BME280;44020;50.890;15.796;2023-07-24T05:17:05;96857.23;;;17.63;78.16
58223;BME280;44020;50.890;15.796;2023-07-24T05:19:32;96855.38;;;17.67;78.31
58223;BME280;44020;50.890;15.796;2023-07-24T05:21:59;96852.60;;;17.71;78.05
58223;BME280;44020;50.890;15.796;2023-07-24T05:24:26;96850.23;;;17.74;77.89
58223;BME280;44020;50.890;15.796;2023-07-24T05:26:53;96848.73;;;17.78;77.67
58223;BME280;44020;50.890;15.796;2023-07-24T05:29:20;96843.20;;;17.81;77.67
58223;BME280;44020;50.890;15.796;2023-07-24T05:31:47;96838.77;;;17.83;77.39
58223;BME280;44020;50.890;15.796;2023-07-24T05:34:14;96839.06;;;17.87;76.93
58223;BME280;44020;50.890;15.796;2023-07-24T05:36:41;96841.91;;;17.91;76.54
58223;BME280;44020;50.890;15.796;2023-07-24T05:39:08;96843.02;;;17.94;76.36
58223;BME280;44020;50.890;15.796;2023-07-24T05:41:35;96847.81;;;17.97;76.11
58223;BME280;44020;50.890;15.796;2023-07-24T05:44:03;96850.76;;;18.01;75.92
58223;BME280;44020;50.890;15.796;2023-07-24T05:46:30;96846.35;;;18.05;76.00
58223;BME280;44020;50.890;15.796;2023-07-24T05:48:57;96841.75;;;18.09;76.10
58223;BME280;44020;50.890;15.796;2023-07-24T05:51:24;96842.70;;;18.14;75.85
58223;BME280;44020;50.890;15.796;2023-07-24T05:53:51;96841.79;;;18.18;75.18
58223;BME280;44020;50.890;15.796;2023-07-24T05:56:18;96845.41;;;18.24;74.33
58223;BME280;44020;50.890;15.796;2023-07-24T05:58:45;96844.77;;;18.31;73.43
58223;BME280;44020;50.890;15.796;2023-07-24T06:01:12;96845.46;;;18.40;72.37
58223;BME280;44020;50.890;15.796;2023-07-24T06:03:39;96843.95;;;18.49;71.28
58223;BME280;44020;50.890;15.796;2023-07-24T06:06:06;96836.80;;;18.61;70.18
58223;BME280;44020;50.890;15.796;2023-07-24T06:08:33;96834.15;;;18.73;69.29
58223;BME280;44020;50.890;15.796;2023-07-24T06:11:00;96834.16;;;18.84;68.14
58223;BME280;44020;50.890;15.796;2023-07-24T06:13:27;96830.93;;;18.96;67.13
58223;BME280;44020;50.890;15.796;2023-07-24T06:15:54;96826.51;;;19.07;66.26
58223;BME280;44020;50.890;15.796;2023-07-24T06:18:21;96821.20;;;19.22;65.01
58223;BME280;44020;50.890;15.796;2023-07-24T06:20:53;96819.16;;;19.36;64.28
58223;BME280;44020;50.890;15.796;2023-07-24T06:23:20;96818.36;;;19.49;63.09
58223;BME280;44020;50.890;15.796;2023-07-24T06:25:47;96811.61;;;19.60;62.80
58223;BME280;44020;50.890;15.796;2023-07-24T06:28:14;96818.60;;;19.70;61.62
58223;BME280;44020;50.890;15.796;2023-07-24T06:30:41;96816.94;;;19.83;61.01
58223;BME280;44020;50.890;15.796;2023-07-24T06:33:08;96813.76;;;19.97;60.64
58223;BME280;44020;50.890;15.796;2023-07-24T06:35:35;96809.34;;;20.11;60.09
58223;BME280;44020;50.890;15.796;2023-07-24T06:38:02;96812.25;;;20.25;59.69
58223;BME280;44020;50.890;15.796;2023-07-24T06:40:29;96808.44;;;20.41;59.41
58223;BME280;44020;50.890;15.796;2023-07-24T06:42:56;96807.83;;;20.53;59.23
58223;BME280;44020;50.890;15.796;2023-07-24T06:45:24;96802.95;;;20.68;58.79
58223;BME280;44020;50.890;15.796;2023-07-24T06:47:51;96793.05;;;20.81;58.97
58223;BME280;44020;50.890;15.796;2023-07-24T06:50:18;96790.54;;;20.92;58.50
58223;BME280;44020;50.890;15.796;2023-07-24T06:52:45;96789.16;;;21.03;58.51
58223;BME280;44020;50.890;15.796;2023-07-24T06:55:12;96792.91;;;21.13;58.42
58223;BME280;44020;50.890;15.796;2023-07-24T06:57:39;96786.52;;;21.18;57.64
58223;BME280;44020;50.890;15.796;2023-07-24T07:00:07;96786.86;;;21.24;57.05
58223;BME280;44020;50.890;15.796;2023-07-24T07:02:38;96788.38;;;21.31;56.69
58223;BME280;44020;50.890;15.796;2023-07-24T07:05:06;96778.09;;;21.38;56.18
58223;BME280;44020;50.890;15.796;2023-07-24T07:07:33;96780.95;;;21.46;56.06
58223;BME280;44020;50.890;15.796;2023-07-24T07:10:01;96773.70;;;21.54;55.88
58223;BME280;44020;50.890;15.796;2023-07-24T07:12:28;96769.65;;;21.63;55.55
58223;BME280;44020;50.890;15.796;2023-07-24T07:14:55;96766.85;;;21.71;55.94
58223;BME280;44020;50.890;15.796;2023-07-24T07:17:22;96764.27;;;21.82;55.81
58223;BME280;44020;50.890;15.796;2023-07-24T07:19:49;96765.11;;;21.91;55.71
58223;BME280;44020;50.890;15.796;2023-07-24T07:22:16;96768.05;;;21.97;55.50
58223;BME280;44020;50.890;15.796;2023-07-24T07:24:43;96767.71;;;22.07;55.30
58223;BME280;44020;50.890;15.796;2023-07-24T07:27:10;96766.86;;;22.16;55.25
58223;BME280;44020;50.890;15.796;2023-07-24T07:29:40;96773.70;;;22.26;54.74
58223;BME280;44020;50.890;15.796;2023-07-24T07:32:07;96778.38;;;22.31;54.57
58223;BME280;44020;50.890;15.796;2023-07-24T07:34:35;96783.95;;;22.39;54.80
58223;BME280;44020;50.890;15.796;2023-07-24T07:37:03;96780.80;;;22.47;54.76
58223;BME280;44020;50.890;15.796;2023-07-24T07:39:31;96784.53;;;22.57;54.22
58223;BME280;44020;50.890;15.796;2023-07-24T07:41:58;96787.46;;;22.63;53.62
58223;BME280;44020;50.890;15.796;2023-07-24T07:44:27;96781.59;;;22.72;53.35
58223;BME280;44020;50.890;15.796;2023-07-24T07:46:57;96779.77;;;22.79;52.86
58223;BME280;44020;50.890;15.796;2023-07-24T07:49:24;96782.77;;;22.88;53.08
58223;BME280;44020;50.890;15.796;2023-07-24T07:51:51;96775.80;;;22.98;52.73
58223;BME280;44020;50.890;15.796;2023-07-24T07:54:18;96774.95;;;23.03;52.52
58223;BME280;44020;50.890;15.796;2023-07-24T07:56:46;96774.27;;;23.08;52.07
58223;BME280;44020;50.890;15.796;2023-07-24T07:59:13;96777.48;;;23.16;52.24
58223;BME280;44020;50.890;15.796;2023-07-24T08:01:40;96779.86;;;23.24;52.48
58223;BME280;44020;50.890;15.796;2023-07-24T08:04:08;96772.08;;;23.32;52.51
58223;BME280;44020;50.890;15.796;2023-07-24T08:06:36;96765.53;;;23.42;52.56
58223;BME280;44020;50.890;15.796;2023-07-24T08:09:03;96770.42;;;23.48;51.91
58223;BME280;44020;50.890;15.796;2023-07-24T08:11:30;96772.13;;;23.51;51.60
58223;BME280;44020;50.890;15.796;2023-07-24T08:13:57;96775.29;;;23.56;51.46
58223;BME280;44020;50.890;15.796;2023-07-24T08:16:24;96768.55;;;23.55;50.60
58223;BME280;44020;50.890;15.796;2023-07-24T08:18:51;96760.15;;;23.54;50.15
58223;BME280;44020;50.890;15.796;2023-07-24T08:21:18;96757.92;;;23.53;50.03
58223;BME280;44020;50.890;15.796;2023-07-24T08:23:47;96762.34;;;23.55;49.97
58223;BME280;44020;50.890;15.796;2023-07-24T08:26:14;96762.02;;;23.57;49.74
58223;BME280;44020;50.890;15.796;2023-07-24T08:28:41;96763.77;;;23.59;49.56
58223;BME280;44020;50.890;15.796;2023-07-24T08:31:09;96762.14;;;23.60;49.47
58223;BME280;44020;50.890;15.796;2023-07-24T08:33:36;96758.98;;;23.62;49.66
58223;BME280;44020;50.890;15.796;2023-07-24T08:36:05;96758.86;;;23.64;51.00
58223;BME280;44020;50.890;15.796;2023-07-24T08:38:34;96757.30;;;23.68;51.53
58223;BME280;44020;50.890;15.796;2023-07-24T08:41:09;96764.20;;;23.69;51.21
58223;BME280;44020;50.890;15.796;2023-07-24T08:43:38;96765.77;;;23.67;50.62
58223;BME280;44020;50.890;15.796;2023-07-24T08:46:06;96760.98;;;23.71;51.00
58223;BME280;44020;50.890;15.796;2023-07-24T08:48:41;96756.40;;;23.82;50.50
58223;BME280;44020;50.890;15.796;2023-07-24T08:51:11;96751.86;;;23.86;50.41
58223;BME280;44020;50.890;15.796;2023-07-24T08:53:42;96742.27;;;23.88;50.27
58223;BME280;44020;50.890;15.796;2023-07-24T08:56:11;96743.30;;;23.98;49.85
58223;BME280;44020;50.890;15.796;2023-07-24T08:58:42;96744.59;;;24.04;49.69
58223;BME280;44020;50.890;15.796;2023-07-24T09:01:18;96739.46;;;24.06;49.55
58223;BME280;44020;50.890;15.796;2023-07-24T09:03:45;96743.49;;;24.06;48.31
58223;BME280;44020;50.890;15.796;2023-07-24T09:06:14;96747.24;;;24.07;48.15
58223;BME280;44020;50.890;15.796;2023-07-24T09:08:45;96750.71;;;24.11;48.45
58223;BME280;44020;50.890;15.796;2023-07-24T09:14:32;96750.04;;;24.19;48.81
58223;BME280;44020;50.890;15.796;2023-07-24T09:17:07;96749.81;;;24.23;48.92
58223;BME280;44020;50.890;15.796;2023-07-24T09:19:35;96747.70;;;24.25;48.69
58223;BME280;44020;50.890;15.796;2023-07-24T09:22:09;96753.77;;;24.27;48.30
58223;BME280;44020;50.890;15.796;2023-07-24T09:24:37;96756.52;;;24.29;48.89
58223;BME280;44020;50.890;15.796;2023-07-24T09:27:05;96755.95;;;24.35;48.93
58223;BME280;44020;50.890;15.796;2023-07-24T09:29:35;96752.80;;;24.41;48.58
58223;BME280;44020;50.890;15.796;2023-07-24T09:32:02;96751.94;;;24.47;48.60
58223;BME280;44020;50.890;15.796;2023-07-24T09:34:31;96753.42;;;24.54;48.36
58223;BME280;44020;50.890;15.796;2023-07-24T09:36:59;96748.14;;;24.60;48.31
58223;BME280;44020;50.890;15.796;2023-07-24T09:39:26;96741.05;;;24.67;49.04
58223;BME280;44020;50.890;15.796;2023-07-24T09:42:02;96738.25;;;24.72;48.77
58223;BME280;44020;50.890;15.796;2023-07-24T09:44:32;96725.44;;;24.76;48.24
58223;BME280;44020;50.890;15.796;2023-07-24T09:47:02;96720.59;;;24.79;48.23
58223;BME280;44020;50.890;15.796;2023-07-24T09:49:29;96717.66;;;24.79;47.79
58223;BME280;44020;50.890;15.796;2023-07-24T09:51:59;96703.77;;;24.79;47.74
58223;BME280;44020;50.890;15.796;2023-07-24T09:54:31;96702.72;;;24.79;47.75
58223;BME280;44020;50.890;15.796;2023-07-24T09:56:59;96706.23;;;24.79;48.14
58223;BME280;44020;50.890;15.796;2023-07-24T09:59:29;96703.15;;;24.87;47.43
58223;BME280;44020;50.890;15.796;2023-07-24T10:01:56;96702.08;;;25.00;47.39
58223;BME280;44020;50.890;15.796;2023-07-24T10:04:23;96693.13;;;25.05;47.30
58223;BME280;44020;50.890;15.796;2023-07-24T10:06:51;96689.77;;;25.07;47.46
58223;BME280;44020;50.890;15.796;2023-07-24T10:09:19;96687.98;;;25.08;47.30
58223;BME280;44020;50.890;15.796;2023-07-24T10:11:52;96686.60;;;25.08;46.73
58223;BME280;44020;50.890;15.796;2023-07-24T10:14:19;96686.34;;;25.09;47.38
58223;BME280;44020;50.890;15.796;2023-07-24T10:16:46;96689.64;;;25.10;47.61
58223;BME280;44020;50.890;15.796;2023-07-24T10:19:16;96683.77;;;25.10;47.09
58223;BME280;44020;50.890;15.796;2023-07-24T10:21:51;96681.02;;;25.12;46.75
58223;BME280;44020;50.890;15.796;2023-07-24T10:24:18;96674.60;;;25.17;47.02
58223;BME280;44020;50.890;15.796;2023-07-24T10:26:49;96671.17;;;25.26;46.56
58223;BME280;44020;50.890;15.796;2023-07-24T10:29:24;96671.54;;;25.35;45.85
58223;BME280;44020;50.890;15.796;2023-07-24T10:31:53;96665.98;;;25.44;45.72
58223;BME280;44020;50.890;15.796;2023-07-24T10:34:21;96669.41;;;25.55;45.68
58223;BME280;44020;50.890;15.796;2023-07-24T10:36:48;96667.64;;;25.69;45.88
58223;BME280;44020;50.890;15.796;2023-07-24T10:39:24;96666.60;;;25.81;45.24
58223;BME280;44020;50.890;15.796;2023-07-24T10:41:52;96670.04;;;25.90;44.64
58223;BME280;44020;50.890;15.796;2023-07-24T10:44:30;96664.28;;;26.03;44.86
58223;BME280;44020;50.890;15.796;2023-07-24T10:46:57;96655.48;;;26.13;44.45
58223;BME280;44020;50.890;15.796;2023-07-24T10:49:24;96655.80;;;26.14;44.17
58223;BME280;44020;50.890;15.796;2023-07-24T10:51:58;96656.66;;;26.16;44.35
58223;BME280;44020;50.890;15.796;2023-07-24T10:54:26;96661.75;;;26.16;44.03
58223;BME280;44020;50.890;15.796;2023-07-24T10:56:59;96658.97;;;26.16;44.52
58223;BME280;44020;50.890;15.796;2023-07-24T10:59:39;96656.16;;;26.13;44.13
58223;BME280;44020;50.890;15.796;2023-07-24T11:02:09;96659.02;;;26.10;44.68
58223;BME280;44020;50.890;15.796;2023-07-24T11:04:37;96653.88;;;26.09;44.58
58223;BME280;44020;50.890;15.796;2023-07-24T11:07:04;96654.70;;;26.08;44.80
58223;BME280;44020;50.890;15.796;2023-07-24T11:09:35;96646.41;;;26.08;45.12
58223;BME280;44020;50.890;15.796;2023-07-24T11:12:16;96644.43;;;26.10;45.05
58223;BME280;44020;50.890;15.796;2023-07-24T11:14:51;96648.92;;;26.13;45.56
58223;BME280;44020;50.890;15.796;2023-07-24T11:17:18;96647.23;;;26.21;45.16
58223;BME280;44020;50.890;15.796;2023-07-24T11:19:45;96644.92;;;26.27;44.99
58223;BME280;44020;50.890;15.796;2023-07-24T11:22:14;96645.48;;;26.30;44.39
58223;BME280;44020;50.890;15.796;2023-07-24T11:24:47;96647.59;;;26.27;44.04
58223;BME280;44020;50.890;15.796;2023-07-24T11:27:16;96649.09;;;26.20;43.76
58223;BME280;44020;50.890;15.796;2023-07-24T11:29:50;96648.08;;;26.14;43.79
58223;BME280;44020;50.890;15.796;2023-07-24T11:32:21;96642.92;;;26.05;43.48
58223;BME280;44020;50.890;15.796;2023-07-24T11:34:49;96639.40;;;25.98;43.53
58223;BME280;44020;50.890;15.796;2023-07-24T11:37:17;96643.42;;;25.90;43.65
58223;BME280;44020;50.890;15.796;2023-07-24T11:39:56;96645.25;;;25.83;43.70
58223;BME280;44020;50.890;15.796;2023-07-24T11:42:27;96651.33;;;25.75;43.49
58223;BME280;44020;50.890;15.796;2023-07-24T11:44:54;96650.17;;;25.67;43.55
58223;BME280;44020;50.890;15.796;2023-07-24T11:47:22;96651.66;;;25.62;43.76
58223;BME280;44020;50.890;15.796;2023-07-24T11:50:02;96648.45;;;25.57;43.76
58223;BME280;44020;50.890;15.796;2023-07-24T11:52:43;96646.89;;;25.50;43.87
58223;BME280;44020;50.890;15.796;2023-07-24T11:55:12;96641.17;;;25.45;44.02
58223;BME280;44020;50.890;15.796;2023-07-24T11:57:39;96638.66;;;25.40;44.19
58223;BME280;44020;50.890;15.796;2023-07-24T12:00:20;96634.87;;;25.38;44.40
58223;BME280;44020;50.890;15.796;2023-07-24T12:02:48;96627.59;;;25.33;44.25
58223;BME280;44020;50.890;15.796;2023-07-24T12:05:16;96624.06;;;25.32;44.26
58223;BME280;44020;50.890;15.796;2023-07-24T12:07:44;96624.40;;;25.32;44.66
58223;BME280;44020;50.890;15.796;2023-07-24T12:10:25;96620.65;;;25.33;44.50
58223;BME280;44020;50.890;15.796;2023-07-24T12:12:59;96621.44;;;25.38;44.51
58223;BME280;44020;50.890;15.796;2023-07-24T12:15:27;96617.32;;;25.42;44.43
58223;BME280;44020;50.890;15.796;2023-07-24T12:17:54;96615.23;;;25.47;44.31
58223;BME280;44020;50.890;15.796;2023-07-24T12:20:21;96614.91;;;25.51;44.17
58223;BME280;44020;50.890;15.796;2023-07-24T12:22:49;96622.48;;;25.57;44.19
58223;BME280;44020;50.890;15.796;2023-07-24T12:25:16;96620.88;;;25.62;44.23
58223;BME280;44020;50.890;15.796;2023-07-24T12:27:47;96619.60;;;25.67;44.10
58223;BME280;44020;50.890;15.796;2023-07-24T12:30:14;96615.56;;;25.73;44.22
58223;BME280;44020;50.890;15.796;2023-07-24T12:32:42;96618.67;;;25.79;44.32
58223;BME280;44020;50.890;15.796;2023-07-24T12:35:10;96617.98;;;25.80;44.38
58223;BME280;44020;50.890;15.796;2023-07-24T12:37:40;96626.96;;;25.81;44.28
58223;BME280;44020;50.890;15.796;2023-07-24T12:40:09;96629.98;;;25.82;44.40
58223;BME280;44020;50.890;15.796;2023-07-24T12:42:36;96625.27;;;25.77;43.86
58223;BME280;44020;50.890;15.796;2023-07-24T12:45:04;96622.59;;;25.73;44.13
58223;BME280;44020;50.890;15.796;2023-07-24T12:47:32;96620.48;;;25.71;44.32
58223;BME280;44020;50.890;15.796;2023-07-24T12:50:00;96622.75;;;25.70;44.33
58223;BME280;44020;50.890;15.796;2023-07-24T12:52:28;96618.10;;;25.70;44.64
58223;BME280;44020;50.890;15.796;2023-07-24T12:54:56;96612.92;;;25.67;44.68
58223;BME280;44020;50.890;15.796;2023-07-24T12:57:23;96618.81;;;25.63;44.52
58223;BME280;44020;50.890;15.796;2023-07-24T12:59:50;96612.40;;;25.60;44.77